sensor_id;sensor_type;location;lat;lon;timestamp;P1;durP1;ratioP1;P2;durP2;ratioP2
47966;SDS011;33733;52.456;13.620;2024-03-02T00:01:50;11.43;;;5.13;;
47966;SDS011;33733;52.456;13.620;2024-03-02T00:04:18;13.57;;;6.43;;
47966;SDS011;33733;52.456;13.620;2024-03-02T00:06:45;14.30;;;6.65;;
47966;SDS011;33733;52.456;13.620;2024-03-02T00:09:12;13.63;;;5.80;;
47966;SDS011;33733;52.456;13.620;2024-03-02T00:11:41;16.40;;;6.70;;
47966;SDS011;33733;52.456;13.620;2024-03-02T00:14:09;15.73;;;7.35;;
47966;SDS011;33733;52.456;13.620;2024-03-02T00:16:36;15.98;;;6.97;;
47966;SDS011;33733;52.456;13.620;2024-03-02T00:19:05;17.05;;;7.43;;
47966;SDS011;33733;52.456;13.620;2024-03-02T00:21:34;14.40;;;6.32;;
47966;SDS011;33733;52.456;13.620;2024-03-02T00:24:06;15.40;;;6.38;;
47966;SDS011;33733;52.456;13.620;2024-03-02T00:26:47;15.85;;;5.60;;
47966;SDS011;33733;52.456;13.620;2024-03-02T00:29:15;12.65;;;5.60;;
47966;SDS011;33733;52.456;13.620;2024-03-02T00:31:46;11.43;;;5.70;;
47966;SDS011;33733;52.456;13.620;2024-03-02T00:34:15;13.60;;;5.65;;
47966;SDS011;33733;52.456;13.620;2024-03-02T00:36:44;16.35;;;6.60;;
47966;SDS011;33733;52.456;13.620;2024-03-02T00:39:12;15.85;;;6.65;;
47966;SDS011;33733;52.456;13.620;2024-03-02T00:44:12;14.52;;;5.70;;
47966;SDS011;33733;52.456;13.620;2024-03-02T00:46:40;13.02;;;6.38;;
47966;SDS011;33733;52.456;13.620;2024-03-02T00:51:39;15.63;;;5.97;;
47966;SDS011;33733;52.456;13.620;2024-03-02T00:54:07;16.00;;;7.00;;
47966;SDS011;33733;52.456;13.620;2024-03-02T00:56:35;14.07;;;6.75;;
47966;SDS011;33733;52.456;13.620;2024-03-02T00:59:02;16.40;;;7.07;;
47966;SDS011;33733;52.456;13.620;2024-03-02T01:01:29;13.45;;;6.57;;
47966;SDS011;33733;52.456;13.620;2024-03-02T01:03:57;11.98;;;5.93;;
47966;SDS011;33733;52.456;13.620;2024-03-02T01:06:24;14.93;;;6.15;;
47966;SDS011;33733;52.456;13.620;2024-03-02T01:08:51;15.43;;;6.63;;
47966;SDS011;33733;52.456;13.620;2024-03-02T01:11:20;15.20;;;6.78;;
47966;SDS011;33733;52.456;13.620;2024-03-02T01:13:51;15.95;;;6.80;;
47966;SDS011;33733;52.456;13.620;2024-03-02T01:16:21;15.45;;;6.63;;
47966;SDS011;33733;52.456;13.620;2024-03-02T01:18:48;13.65;;;5.65;;
47966;SDS011;33733;52.456;13.620;2024-03-02T01:21:16;12.02;;;6.10;;
47966;SDS011;33733;52.456;13.620;2024-03-02T01:23:44;13.20;;;6.28;;
47966;SDS011;33733;52.456;13.620;2024-03-02T01:26:11;19.00;;;7.97;;
47966;SDS011;33733;52.456;13.620;2024-03-02T01:28:38;17.27;;;8.18;;
47966;SDS011;33733;52.456;13.620;2024-03-02T01:31:06;16.88;;;7.78;;
47966;SDS011;33733;52.456;13.620;2024-03-02T01:33:33;17.27;;;8.10;;
47966;SDS011;33733;52.456;13.620;2024-03-02T01:36:00;19.77;;;8.60;;
47966;SDS011;33733;52.456;13.620;2024-03-02T01:38:28;19.85;;;8.32;;
47966;SDS011;33733;52.456;13.620;2024-03-02T01:40:55;23.70;;;8.60;;
47966;SDS011;33733;52.456;13.620;2024-03-02T01:43:24;16.52;;;7.93;;
47966;SDS011;33733;52.456;13.620;2024-03-02T01:45:51;15.38;;;7.85;;
47966;SDS011;33733;52.456;13.620;2024-03-02T01:48:19;19.73;;;8.23;;
47966;SDS011;33733;52.456;13.620;2024-03-02T01:50:46;15.63;;;7.72;;
47966;SDS011;33733;52.456;13.620;2024-03-02T01:53:14;15.32;;;7.00;;
47966;SDS011;33733;52.456;13.620;2024-03-02T01:55:41;16.75;;;7.22;;
47966;SDS011;33733;52.456;13.620;2024-03-02T01:58:08;12.65;;;5.80;;
47966;SDS011;33733;52.456;13.620;2024-03-02T02:00:36;15.23;;;7.28;;
47966;SDS011;33733;52.456;13.620;2024-03-02T02:03:04;13.93;;;5.95;;
47966;SDS011;33733;52.456;13.620;2024-03-02T02:05:31;14.82;;;6.82;;
47966;SDS011;33733;52.456;13.620;2024-03-02T02:07:58;13.95;;;6.28;;
47966;SDS011;33733;52.456;13.620;2024-03-02T02:10:25;15.15;;;7.00;;
47966;SDS011;33733;52.456;13.620;2024-03-02T02:12:53;16.73;;;7.93;;
47966;SDS011;33733;52.456;13.620;2024-03-02T02:17:51;19.73;;;9.00;;
47966;SDS011;33733;52.456;13.620;2024-03-02T02:20:18;18.95;;;8.43;;
47966;SDS011;33733;52.456;13.620;2024-03-02T02:22:54;19.27;;;8.38;;
47966;SDS011;33733;52.456;13.620;2024-03-02T02:25:25;17.50;;;8.15;;
47966;SDS011;33733;52.456;13.620;2024-03-02T02:27:53;23.88;;;9.60;;
47966;SDS011;33733;52.456;13.620;2024-03-02T02:30:21;21.58;;;9.40;;
47966;SDS011;33733;52.456;13.620;2024-03-02T02:32:53;23.92;;;9.70;;
47966;SDS011;33733;52.456;13.620;2024-03-02T02:35:20;17.63;;;9.13;;
47966;SDS011;33733;52.456;13.620;2024-03-02T02:37:47;23.45;;;10.13;;
47966;SDS011;33733;52.456;13.620;2024-03-02T02:40:16;23.65;;;10.13;;
47966;SDS011;33733;52.456;13.620;2024-03-02T02:45:13;19.73;;;9.80;;
47966;SDS011;33733;52.456;13.620;2024-03-02T02:47:42;19.60;;;8.70;;
47966;SDS011;33733;52.456;13.620;2024-03-02T02:50:10;21.75;;;9.60;;
47966;SDS011;33733;52.456;13.620;2024-03-02T02:52:39;20.67;;;9.15;;
47966;SDS011;33733;52.456;13.620;2024-03-02T02:55:08;19.50;;;8.55;;
47966;SDS011;33733;52.456;13.620;2024-03-02T02:57:40;24.52;;;9.32;;
47966;SDS011;33733;52.456;13.620;2024-03-02T03:00:10;24.42;;;9.63;;
47966;SDS011;33733;52.456;13.620;2024-03-02T03:02:45;18.42;;;9.00;;
47966;SDS011;33733;52.456;13.620;2024-03-02T03:05:15;19.58;;;8.48;;
47966;SDS011;33733;52.456;13.620;2024-03-02T03:07:43;24.23;;;9.98;;
47966;SDS011;33733;52.456;13.620;2024-03-02T03:10:12;16.00;;;7.25;;
47966;SDS011;33733;52.456;13.620;2024-03-02T03:12:40;27.40;;;9.90;;
47966;SDS011;33733;52.456;13.620;2024-03-02T03:15:09;19.70;;;9.23;;
47966;SDS011;33733;52.456;13.620;2024-03-02T03:17:37;19.48;;;9.13;;
47966;SDS011;33733;52.456;13.620;2024-03-02T03:20:04;20.92;;;9.07;;
47966;SDS011;33733;52.456;13.620;2024-03-02T03:22:33;20.80;;;9.85;;
47966;SDS011;33733;52.456;13.620;2024-03-02T03:25:02;20.27;;;9.50;;
47966;SDS011;33733;52.456;13.620;2024-03-02T03:27:30;22.70;;;8.80;;
47966;SDS011;33733;52.456;13.620;2024-03-02T03:29:57;19.70;;;9.60;;
47966;SDS011;33733;52.456;13.620;2024-03-02T03:32:24;22.45;;;8.68;;
47966;SDS011;33733;52.456;13.620;2024-03-02T03:34:52;17.67;;;8.05;;
47966;SDS011;33733;52.456;13.620;2024-03-02T03:37:19;21.90;;;8.55;;
47966;SDS011;33733;52.456;13.620;2024-03-02T03:39:46;19.33;;;8.43;;
47966;SDS011;33733;52.456;13.620;2024-03-02T03:42:13;21.17;;;9.20;;
47966;SDS011;33733;52.456;13.620;2024-03-02T03:44:41;17.40;;;7.88;;
47966;SDS011;33733;52.456;13.620;2024-03-02T03:47:08;20.25;;;7.95;;
47966;SDS011;33733;52.456;13.620;2024-03-02T03:49:36;17.42;;;8.13;;
47966;SDS011;33733;52.456;13.620;2024-03-02T03:52:03;19.52;;;7.65;;
47966;SDS011;33733;52.456;13.620;2024-03-02T03:54:31;16.77;;;7.65;;
47966;SDS011;33733;52.456;13.620;2024-03-02T03:56:58;19.42;;;8.40;;
47966;SDS011;33733;52.456;13.620;2024-03-02T03:59:25;16.85;;;8.40;;
47966;SDS011;33733;52.456;13.620;2024-03-02T04:01:52;16.98;;;8.45;;
47966;SDS011;33733;52.456;13.620;2024-03-02T04:04:20;17.95;;;8.32;;
47966;SDS011;33733;52.456;13.620;2024-03-02T04:06:47;18.42;;;7.68;;
47966;SDS011;33733;52.456;13.620;2024-03-02T04:09:14;19.95;;;8.20;;
47966;SDS011;33733;52.456;13.620;2024-03-02T04:11:42;18.95;;;8.80;;
47966;SDS011;33733;52.456;13.620;2024-03-02T04:14:09;19.13;;;8.70;;
47966;SDS011;33733;52.456;13.620;2024-03-02T04:16:36;16.83;;;7.13;;
47966;SDS011;33733;52.456;13.620;2024-03-02T04:19:04;18.40;;;7.85;;
47966;SDS011;33733;52.456;13.620;2024-03-02T04:21:31;18.13;;;7.95;;
47966;SDS011;33733;52.456;13.620;2024-03-02T04:23:59;15.55;;;6.47;;
47966;SDS011;33733;52.456;13.620;2024-03-02T04:26:26;16.27;;;7.72;;
47966;SDS011;33733;52.456;13.620;2024-03-02T04:28:53;15.00;;;7.93;;
47966;SDS011;33733;52.456;13.620;2024-03-02T04:31:21;16.52;;;7.45;;
47966;SDS011;33733;52.456;13.620;2024-03-02T04:33:48;16.27;;;7.32;;
47966;SDS011;33733;52.456;13.620;2024-03-02T04:36:16;15.50;;;7.72;;
47966;SDS011;33733;52.456;13.620;2024-03-02T04:38:43;17.58;;;7.97;;
47966;SDS011;33733;52.456;13.620;2024-03-02T04:41:10;16.95;;;7.85;;
47966;SDS011;33733;52.456;13.620;2024-03-02T04:43:37;18.13;;;7.50;;
47966;SDS011;33733;52.456;13.620;2024-03-02T04:46:05;15.73;;;7.18;;
47966;SDS011;33733;52.456;13.620;2024-03-02T04:48:34;14.73;;;7.00;;
47966;SDS011;33733;52.456;13.620;2024-03-02T04:51:01;16.52;;;7.25;;
47966;SDS011;33733;52.456;13.620;2024-03-02T04:53:28;16.77;;;7.47;;
47966;SDS011;33733;52.456;13.620;2024-03-02T04:55:55;17.60;;;7.15;;
47966;SDS011;33733;52.456;13.620;2024-03-02T04:58:22;17.27;;;7.35;;
47966;SDS011;33733;52.456;13.620;2024-03-02T05:00:50;17.45;;;6.88;;
47966;SDS011;33733;52.456;13.620;2024-03-02T05:03:17;15.57;;;7.40;;
47966;SDS011;33733;52.456;13.620;2024-03-02T05:05:44;16.10;;;7.35;;
47966;SDS011;33733;52.456;13.620;2024-03-02T05:08:12;15.90;;;7.40;;
47966;SDS011;33733;52.456;13.620;2024-03-02T05:10:39;17.48;;;6.65;;
47966;SDS011;33733;52.456;13.620;2024-03-02T05:13:06;14.25;;;6.75;;
47966;SDS011;33733;52.456;13.620;2024-03-02T05:15:34;16.15;;;6.80;;
47966;SDS011;33733;52.456;13.620;2024-03-02T05:18:01;16.67;;;7.78;;
47966;SDS011;33733;52.456;13.620;2024-03-02T05:20:32;16.42;;;6.60;;
47966;SDS011;33733;52.456;13.620;2024-03-02T05:22:59;14.10;;;6.72;;
47966;SDS011;33733;52.456;13.620;2024-03-02T05:25:26;15.48;;;6.72;;
47966;SDS011;33733;52.456;13.620;2024-03-02T05:27:53;16.35;;;7.32;;
47966;SDS011;33733;52.456;13.620;2024-03-02T05:30:21;18.63;;;6.32;;
47966;SDS011;33733;52.456;13.620;2024-03-02T05:32:48;13.60;;;5.68;;
47966;SDS011;33733;52.456;13.620;2024-03-02T05:35:15;16.08;;;6.75;;
47966;SDS011;33733;52.456;13.620;2024-03-02T05:37:42;17.15;;;7.57;;
47966;SDS011;33733;52.456;13.620;2024-03-02T05:40:10;16.83;;;7.32;;
47966;SDS011;33733;52.456;13.620;2024-03-02T05:42:38;12.90;;;5.72;;
47966;SDS011;33733;52.456;13.620;2024-03-02T05:45:06;16.80;;;6.80;;
47966;SDS011;33733;52.456;13.620;2024-03-02T05:47:34;16.65;;;7.18;;
47966;SDS011;33733;52.456;13.620;2024-03-02T05:50:01;16.98;;;7.13;;
47966;SDS011;33733;52.456;13.620;2024-03-02T05:54:57;12.48;;;5.65;;
47966;SDS011;33733;52.456;13.620;2024-03-02T05:57:24;15.73;;;6.72;;
47966;SDS011;33733;52.456;13.620;2024-03-02T06:00:15;14.07;;;5.97;;
47966;SDS011;33733;52.456;13.620;2024-03-02T06:02:44;16.83;;;5.82;;
47966;SDS011;33733;52.456;13.620;2024-03-02T06:05:12;13.43;;;6.88;;
47966;SDS011;33733;52.456;13.620;2024-03-02T06:07:39;14.27;;;6.60;;
47966;SDS011;33733;52.456;13.620;2024-03-02T06:10:06;17.38;;;7.25;;
47966;SDS011;33733;52.456;13.620;2024-03-02T06:12:40;13.25;;;6.40;;
47966;SDS011;33733;52.456;13.620;2024-03-02T06:15:07;15.85;;;6.70;;
47966;SDS011;33733;52.456;13.620;2024-03-02T06:17:35;13.95;;;5.60;;
47966;SDS011;33733;52.456;13.620;2024-03-02T06:20:02;16.13;;;6.57;;
47966;SDS011;33733;52.456;13.620;2024-03-02T06:22:30;15.40;;;7.03;;
47966;SDS011;33733;52.456;13.620;2024-03-02T06:24:57;13.40;;;5.90;;
47966;SDS011;33733;52.456;13.620;2024-03-02T06:27:24;20.85;;;7.43;;
47966;SDS011;33733;52.456;13.620;2024-03-02T06:29:51;16.30;;;7.00;;
47966;SDS011;33733;52.456;13.620;2024-03-02T06:32:19;18.10;;;7.47;;
47966;SDS011;33733;52.456;13.620;2024-03-02T06:34:46;16.75;;;6.22;;
47966;SDS011;33733;52.456;13.620;2024-03-02T06:37:13;15.48;;;7.28;;
47966;SDS011;33733;52.456;13.620;2024-03-02T06:39:40;15.15;;;7.50;;
47966;SDS011;33733;52.456;13.620;2024-03-02T06:42:07;19.48;;;7.30;;
47966;SDS011;33733;52.456;13.620;2024-03-02T06:44:34;15.80;;;7.55;;
47966;SDS011;33733;52.456;13.620;2024-03-02T06:47:02;15.07;;;7.55;;
47966;SDS011;33733;52.456;13.620;2024-03-02T06:49:29;16.17;;;8.05;;
47966;SDS011;33733;52.456;13.620;2024-03-02T06:51:56;17.52;;;7.53;;
47966;SDS011;33733;52.456;13.620;2024-03-02T06:54:23;17.00;;;8.05;;
47966;SDS011;33733;52.456;13.620;2024-03-02T06:56:50;16.95;;;7.68;;
47966;SDS011;33733;52.456;13.620;2024-03-02T06:59:17;18.13;;;7.60;;
47966;SDS011;33733;52.456;13.620;2024-03-02T07:01:45;16.85;;;7.72;;
47966;SDS011;33733;52.456;13.620;2024-03-02T07:04:12;17.33;;;7.95;;
47966;SDS011;33733;52.456;13.620;2024-03-02T07:06:39;14.80;;;6.57;;
47966;SDS011;33733;52.456;13.620;2024-03-02T07:09:07;16.77;;;6.85;;
47966;SDS011;33733;52.456;13.620;2024-03-02T07:11:37;19.95;;;8.75;;
47966;SDS011;33733;52.456;13.620;2024-03-02T07:14:04;17.27;;;7.50;;
47966;SDS011;33733;52.456;13.620;2024-03-02T07:16:31;17.77;;;8.82;;
47966;SDS011;33733;52.456;13.620;2024-03-02T07:19:01;17.63;;;8.30;;
47966;SDS011;33733;52.456;13.620;2024-03-02T07:21:29;17.15;;;8.27;;
47966;SDS011;33733;52.456;13.620;2024-03-02T07:23:56;17.67;;;8.40;;
47966;SDS011;33733;52.456;13.620;2024-03-02T07:26:23;22.75;;;9.23;;
47966;SDS011;33733;52.456;13.620;2024-03-02T07:28:53;19.55;;;8.52;;
47966;SDS011;33733;52.456;13.620;2024-03-02T07:31:20;18.90;;;8.18;;
47966;SDS011;33733;52.456;13.620;2024-03-02T07:33:48;18.27;;;7.85;;
47966;SDS011;33733;52.456;13.620;2024-03-02T07:36:15;17.60;;;8.52;;
47966;SDS011;33733;52.456;13.620;2024-03-02T07:38:42;19.20;;;8.40;;
47966;SDS011;33733;52.456;13.620;2024-03-02T07:41:11;17.45;;;8.25;;
47966;SDS011;33733;52.456;13.620;2024-03-02T07:43:39;16.95;;;7.65;;
47966;SDS011;33733;52.456;13.620;2024-03-02T07:46:06;19.98;;;8.70;;
47966;SDS011;33733;52.456;13.620;2024-03-02T07:48:34;19.10;;;7.63;;
47966;SDS011;33733;52.456;13.620;2024-03-02T07:51:01;15.93;;;7.00;;
47966;SDS011;33733;52.456;13.620;2024-03-02T07:53:29;19.75;;;8.75;;
47966;SDS011;33733;52.456;13.620;2024-03-02T07:55:56;18.40;;;8.23;;
47966;SDS011;33733;52.456;13.620;2024-03-02T07:58:29;21.63;;;8.52;;
47966;SDS011;33733;52.456;13.620;2024-03-02T08:00:57;19.85;;;8.60;;
47966;SDS011;33733;52.456;13.620;2024-03-02T08:03:27;16.58;;;7.53;;
47966;SDS011;33733;52.456;13.620;2024-03-02T08:05:55;19.55;;;7.78;;
47966;SDS011;33733;52.456;13.620;2024-03-02T08:08:22;22.15;;;9.00;;
47966;SDS011;33733;52.456;13.620;2024-03-02T08:10:49;17.50;;;7.88;;
47966;SDS011;33733;52.456;13.620;2024-03-02T08:13:16;19.42;;;9.27;;
47966;SDS011;33733;52.456;13.620;2024-03-02T08:15:43;18.92;;;8.52;;
47966;SDS011;33733;52.456;13.620;2024-03-02T08:18:11;21.90;;;9.07;;
47966;SDS011;33733;52.456;13.620;2024-03-02T08:20:38;19.58;;;8.68;;
47966;SDS011;33733;52.456;13.620;2024-03-02T08:23:05;18.40;;;9.52;;
47966;SDS011;33733;52.456;13.620;2024-03-02T08:25:33;18.90;;;8.48;;
47966;SDS011;33733;52.456;13.620;2024-03-02T08:28:00;25.35;;;9.68;;
47966;SDS011;33733;52.456;13.620;2024-03-02T08:30:28;21.52;;;8.48;;
47966;SDS011;33733;52.456;13.620;2024-03-02T08:32:55;22.00;;;9.27;;
47966;SDS011;33733;52.456;13.620;2024-03-02T08:35:22;20.25;;;9.02;;
47966;SDS011;33733;52.456;13.620;2024-03-02T08:37:50;22.70;;;9.60;;
47966;SDS011;33733;52.456;13.620;2024-03-02T08:40:17;20.02;;;8.77;;
47966;SDS011;33733;52.456;13.620;2024-03-02T08:42:45;20.48;;;8.40;;
47966;SDS011;33733;52.456;13.620;2024-03-02T08:45:13;18.38;;;8.20;;
47966;SDS011;33733;52.456;13.620;2024-03-02T08:47:40;18.98;;;9.18;;
47966;SDS011;33733;52.456;13.620;2024-03-02T08:50:07;18.45;;;8.25;;
47966;SDS011;33733;52.456;13.620;2024-03-02T08:52:35;22.08;;;9.40;;
47966;SDS011;33733;52.456;13.620;2024-03-02T08:55:02;19.33;;;8.82;;
47966;SDS011;33733;52.456;13.620;2024-03-02T08:57:30;19.63;;;8.60;;
47966;SDS011;33733;52.456;13.620;2024-03-02T08:59:58;20.02;;;8.55;;
47966;SDS011;33733;52.456;13.620;2024-03-02T09:02:26;20.75;;;10.10;;
47966;SDS011;33733;52.456;13.620;2024-03-02T09:04:54;18.00;;;8.95;;
47966;SDS011;33733;52.456;13.620;2024-03-02T09:07:21;19.30;;;8.48;;
47966;SDS011;33733;52.456;13.620;2024-03-02T09:09:48;17.80;;;7.35;;
47966;SDS011;33733;52.456;13.620;2024-03-02T09:12:16;20.55;;;7.85;;
47966;SDS011;33733;52.456;13.620;2024-03-02T09:14:43;19.13;;;7.45;;
47966;SDS011;33733;52.456;13.620;2024-03-02T09:17:10;19.10;;;7.32;;
47966;SDS011;33733;52.456;13.620;2024-03-02T09:19:39;16.45;;;8.20;;
47966;SDS011;33733;52.456;13.620;2024-03-02T09:22:06;16.92;;;7.55;;
47966;SDS011;33733;52.456;13.620;2024-03-02T09:24:33;16.55;;;7.75;;
47966;SDS011;33733;52.456;13.620;2024-03-02T09:27:00;16.77;;;7.43;;
47966;SDS011;33733;52.456;13.620;2024-03-02T09:29:28;19.23;;;6.72;;
47966;SDS011;33733;52.456;13.620;2024-03-02T09:31:56;17.40;;;8.02;;
47966;SDS011;33733;52.456;13.620;2024-03-02T09:34:23;16.75;;;8.00;;
47966;SDS011;33733;52.456;13.620;2024-03-02T09:36:51;18.52;;;7.18;;
47966;SDS011;33733;52.456;13.620;2024-03-02T09:39:19;13.85;;;6.78;;
47966;SDS011;33733;52.456;13.620;2024-03-02T09:41:47;16.67;;;6.95;;
47966;SDS011;33733;52.456;13.620;2024-03-02T09:44:15;17.17;;;7.18;;
47966;SDS011;33733;52.456;13.620;2024-03-02T09:46:42;17.27;;;7.13;;
47966;SDS011;33733;52.456;13.620;2024-03-02T09:49:11;15.50;;;7.28;;
47966;SDS011;33733;52.456;13.620;2024-03-02T09:51:38;14.23;;;6.05;;
47966;SDS011;33733;52.456;13.620;2024-03-02T09:54:07;17.77;;;7.28;;
47966;SDS011;33733;52.456;13.620;2024-03-02T09:56:48;17.48;;;7.25;;
47966;SDS011;33733;52.456;13.620;2024-03-02T09:59:16;17.15;;;6.47;;
47966;SDS011;33733;52.456;13.620;2024-03-02T10:01:58;15.65;;;6.95;;
47966;SDS011;33733;52.456;13.620;2024-03-02T10:04:27;14.95;;;6.15;;
47966;SDS011;33733;52.456;13.620;2024-03-02T10:07:29;16.30;;;6.88;;
47966;SDS011;33733;52.456;13.620;2024-03-02T10:09:48;15.82;;;5.80;;
47966;SDS011;33733;52.456;13.620;2024-03-02T10:12:16;16.27;;;7.10;;
47966;SDS011;33733;52.456;13.620;2024-03-02T10:14:44;16.60;;;5.45;;
47966;SDS011;33733;52.456;13.620;2024-03-02T10:17:13;15.60;;;5.72;;
47966;SDS011;33733;52.456;13.620;2024-03-02T10:19:42;14.32;;;5.35;;
47966;SDS011;33733;52.456;13.620;2024-03-02T10:22:09;13.10;;;5.93;;
47966;SDS011;33733;52.456;13.620;2024-03-02T10:27:07;13.45;;;5.47;;
47966;SDS011;33733;52.456;13.620;2024-03-02T10:29:36;13.90;;;5.40;;
47966;SDS011;33733;52.456;13.620;2024-03-02T10:32:07;14.25;;;6.15;;
47966;SDS011;33733;52.456;13.620;2024-03-02T10:34:45;13.35;;;5.90;;
47966;SDS011;33733;52.456;13.620;2024-03-02T10:37:14;14.18;;;5.68;;
47966;SDS011;33733;52.456;13.620;2024-03-02T10:39:42;12.80;;;5.15;;
47966;SDS011;33733;52.456;13.620;2024-03-02T10:42:09;16.17;;;5.32;;
47966;SDS011;33733;52.456;13.620;2024-03-02T10:44:36;15.65;;;5.53;;
47966;SDS011;33733;52.456;13.620;2024-03-02T10:47:04;15.70;;;5.55;;
47966;SDS011;33733;52.456;13.620;2024-03-02T10:49:33;12.30;;;4.82;;
47966;SDS011;33733;52.456;13.620;2024-03-02T10:52:01;15.18;;;5.93;;
47966;SDS011;33733;52.456;13.620;2024-03-02T10:54:28;14.05;;;6.18;;
47966;SDS011;33733;52.456;13.620;2024-03-02T10:57:03;13.43;;;5.22;;
47966;SDS011;33733;52.456;13.620;2024-03-02T10:59:35;14.35;;;5.68;;
47966;SDS011;33733;52.456;13.620;2024-03-02T11:02:07;17.00;;;5.80;;
47966;SDS011;33733;52.456;13.620;2024-03-02T11:04:39;12.80;;;4.70;;
47966;SDS011;33733;52.456;13.620;2024-03-02T11:07:09;11.77;;;5.00;;
47966;SDS011;33733;52.456;13.620;2024-03-02T11:09:41;15.02;;;4.63;;
47966;SDS011;33733;52.456;13.620;2024-03-02T11:15:01;15.18;;;5.22;;
47966;SDS011;33733;52.456;13.620;2024-03-02T11:17:32;14.98;;;6.20;;
47966;SDS011;33733;52.456;13.620;2024-03-02T11:19:59;12.77;;;4.57;;
47966;SDS011;33733;52.456;13.620;2024-03-02T11:22:28;15.73;;;5.73;;
47966;SDS011;33733;52.456;13.620;2024-03-02T11:24:55;13.60;;;4.90;;
47966;SDS011;33733;52.456;13.620;2024-03-02T11:33:05;10.00;;;4.47;;
47966;SDS011;33733;52.456;13.620;2024-03-02T11:35:41;11.00;;;4.82;;
47966;SDS011;33733;52.456;13.620;2024-03-02T11:38:10;12.77;;;5.90;;
47966;SDS011;33733;52.456;13.620;2024-03-02T11:40:40;12.05;;;4.88;;
47966;SDS011;33733;52.456;13.620;2024-03-02T11:43:08;10.15;;;4.43;;
47966;SDS011;33733;52.456;13.620;2024-03-02T11:45:36;11.90;;;4.18;;
47966;SDS011;33733;52.456;13.620;2024-03-02T11:48:09;11.52;;;3.92;;
47966;SDS011;33733;52.456;13.620;2024-03-02T11:50:42;10.35;;;3.95;;
47966;SDS011;33733;52.456;13.620;2024-03-02T11:53:14;9.40;;;3.80;;
47966;SDS011;33733;52.456;13.620;2024-03-02T11:55:41;10.45;;;3.58;;
47966;SDS011;33733;52.456;13.620;2024-03-02T11:58:14;9.23;;;3.60;;
47966;SDS011;33733;52.456;13.620;2024-03-02T12:00:51;10.38;;;3.83;;
47966;SDS011;33733;52.456;13.620;2024-03-02T12:03:23;10.20;;;3.30;;
47966;SDS011;33733;52.456;13.620;2024-03-02T12:05:53;11.95;;;3.40;;
47966;SDS011;33733;52.456;13.620;2024-03-02T12:08:21;11.20;;;4.20;;
47966;SDS011;33733;52.456;13.620;2024-03-02T12:10:58;12.27;;;3.67;;
47966;SDS011;33733;52.456;13.620;2024-03-02T12:13:28;10.75;;;3.78;;
47966;SDS011;33733;52.456;13.620;2024-03-02T12:15:55;13.23;;;4.78;;
47966;SDS011;33733;52.456;13.620;2024-03-02T12:18:23;10.75;;;3.60;;
47966;SDS011;33733;52.456;13.620;2024-03-02T12:20:51;11.20;;;3.60;;
47966;SDS011;33733;52.456;13.620;2024-03-02T12:23:20;8.25;;;2.72;;
47966;SDS011;33733;52.456;13.620;2024-03-02T12:25:47;8.65;;;3.75;;
47966;SDS011;33733;52.456;13.620;2024-03-02T12:28:15;9.25;;;3.25;;
47966;SDS011;33733;52.456;13.620;2024-03-02T12:30:42;9.07;;;3.30;;
47966;SDS011;33733;52.456;13.620;2024-03-02T12:33:11;8.10;;;2.72;;
47966;SDS011;33733;52.456;13.620;2024-03-02T12:35:38;8.63;;;3.30;;
47966;SDS011;33733;52.456;13.620;2024-03-02T12:38:06;9.13;;;2.97;;
47966;SDS011;33733;52.456;13.620;2024-03-02T12:40:33;9.02;;;2.80;;
47966;SDS011;33733;52.456;13.620;2024-03-02T12:43:00;8.35;;;2.83;;
47966;SDS011;33733;52.456;13.620;2024-03-02T12:45:28;8.40;;;2.83;;
47966;SDS011;33733;52.456;13.620;2024-03-02T12:47:55;8.55;;;3.50;;
47966;SDS011;33733;52.456;13.620;2024-03-02T12:50:22;10.02;;;3.28;;
47966;SDS011;33733;52.456;13.620;2024-03-02T12:52:53;8.82;;;3.30;;
47966;SDS011;33733;52.456;13.620;2024-03-02T12:55:21;8.85;;;3.05;;
47966;SDS011;33733;52.456;13.620;2024-03-02T12:57:50;8.70;;;3.40;;
47966;SDS011;33733;52.456;13.620;2024-03-02T13:00:21;10.07;;;2.97;;
47966;SDS011;33733;52.456;13.620;2024-03-02T13:02:50;8.27;;;3.08;;
47966;SDS011;33733;52.456;13.620;2024-03-02T13:05:19;8.13;;;3.25;;
47966;SDS011;33733;52.456;13.620;2024-03-02T13:07:47;9.23;;;3.65;;
47966;SDS011;33733;52.456;13.620;2024-03-02T13:10:15;9.73;;;3.70;;
47966;SDS011;33733;52.456;13.620;2024-03-02T13:12:43;8.35;;;2.40;;
47966;SDS011;33733;52.456;13.620;2024-03-02T13:15:10;8.30;;;2.92;;
47966;SDS011;33733;52.456;13.620;2024-03-02T13:17:44;7.55;;;2.63;;
47966;SDS011;33733;52.456;13.620;2024-03-02T13:20:13;7.18;;;2.40;;
47966;SDS011;33733;52.456;13.620;2024-03-02T13:22:41;8.00;;;2.55;;
47966;SDS011;33733;52.456;13.620;2024-03-02T13:25:09;8.75;;;2.60;;
47966;SDS011;33733;52.456;13.620;2024-03-02T13:30:05;7.00;;;2.33;;
47966;SDS011;33733;52.456;13.620;2024-03-02T13:32:35;6.85;;;2.50;;
47966;SDS011;33733;52.456;13.620;2024-03-02T13:35:03;6.95;;;2.40;;
47966;SDS011;33733;52.456;13.620;2024-03-02T13:37:30;6.18;;;2.15;;
47966;SDS011;33733;52.456;13.620;2024-03-02T13:39:57;7.63;;;2.38;;
47966;SDS011;33733;52.456;13.620;2024-03-02T13:42:25;6.25;;;1.92;;
47966;SDS011;33733;52.456;13.620;2024-03-02T13:44:53;6.68;;;2.15;;
47966;SDS011;33733;52.456;13.620;2024-03-02T13:47:20;8.20;;;2.67;;
47966;SDS011;33733;52.456;13.620;2024-03-02T13:49:48;8.20;;;2.13;;
47966;SDS011;33733;52.456;13.620;2024-03-02T13:52:16;8.23;;;2.40;;
47966;SDS011;33733;52.456;13.620;2024-03-02T13:54:47;10.60;;;2.63;;
47966;SDS011;33733;52.456;13.620;2024-03-02T13:57:15;8.02;;;2.90;;
47966;SDS011;33733;52.456;13.620;2024-03-02T13:59:43;9.82;;;2.78;;
47966;SDS011;33733;52.456;13.620;2024-03-02T14:02:11;6.97;;;2.30;;
47966;SDS011;33733;52.456;13.620;2024-03-02T14:04:39;6.65;;;2.70;;
47966;SDS011;33733;52.456;13.620;2024-03-02T14:07:07;7.28;;;2.40;;
47966;SDS011;33733;52.456;13.620;2024-03-02T14:09:35;7.18;;;2.55;;
47966;SDS011;33733;52.456;13.620;2024-03-02T14:12:04;6.82;;;2.35;;
47966;SDS011;33733;52.456;13.620;2024-03-02T14:14:32;8.80;;;2.10;;
47966;SDS011;33733;52.456;13.620;2024-03-02T14:17:00;6.03;;;2.03;;
47966;SDS011;33733;52.456;13.620;2024-03-02T14:19:30;7.25;;;2.05;;
47966;SDS011;33733;52.456;13.620;2024-03-02T14:21:57;9.75;;;2.90;;
47966;SDS011;33733;52.456;13.620;2024-03-02T14:24:25;6.78;;;2.20;;
47966;SDS011;33733;52.456;13.620;2024-03-02T14:26:53;8.77;;;2.78;;
47966;SDS011;33733;52.456;13.620;2024-03-02T14:29:32;7.25;;;2.53;;
47966;SDS011;33733;52.456;13.620;2024-03-02T14:32:03;8.88;;;2.15;;
47966;SDS011;33733;52.456;13.620;2024-03-02T14:34:31;7.80;;;2.47;;
47966;SDS011;33733;52.456;13.620;2024-03-02T14:36:58;6.57;;;2.67;;
47966;SDS011;33733;52.456;13.620;2024-03-02T14:39:26;6.38;;;2.08;;
47966;SDS011;33733;52.456;13.620;2024-03-02T14:41:53;8.20;;;2.90;;
47966;SDS011;33733;52.456;13.620;2024-03-02T14:44:21;6.25;;;2.03;;
47966;SDS011;33733;52.456;13.620;2024-03-02T14:46:49;8.20;;;2.03;;
47966;SDS011;33733;52.456;13.620;2024-03-02T14:49:17;7.47;;;2.65;;
47966;SDS011;33733;52.456;13.620;2024-03-02T14:51:44;11.48;;;3.67;;
47966;SDS011;33733;52.456;13.620;2024-03-02T14:54:12;9.88;;;3.33;;
47966;SDS011;33733;52.456;13.620;2024-03-02T14:56:39;8.68;;;3.20;;